METAR Data
IDs: Format: Raw Decoded Include TAF

Data at: 0822 UTC 01 Aug 2021

KPAE 010753Z AUTO 00000KT 10SM CLR 16/13 A3005 RMK AO2 SLP175 T01610128 402220156